sensor_id;sensor_type;location;lat;lon;timestamp;P1;durP1;ratioP1;P2;durP2;ratioP2
76194;SDS011;64964;48.694;21.206;2023-02-15T00:01:37;13.13;;;6.57;;
76194;SDS011;64964;48.694;21.206;2023-02-15T00:04:04;14.60;;;7.10;;
76194;SDS011;64964;48.694;21.206;2023-02-15T00:06:30;16.38;;;7.35;;
76194;SDS011;64964;48.694;21.206;2023-02-15T00:08:56;14.25;;;7.30;;
76194;SDS011;64964;48.694;21.206;2023-02-15T00:11:22;16.13;;;7.07;;
76194;SDS011;64964;48.694;21.206;2023-02-15T00:16:36;15.10;;;7.18;;
76194;SDS011;64964;48.694;21.206;2023-02-15T00:19:03;14.77;;;7.22;;
76194;SDS011;64964;48.694;21.206;2023-02-15T00:21:29;14.90;;;6.80;;
76194;SDS011;64964;48.694;21.206;2023-02-15T00:23:56;14.88;;;7.28;;
76194;SDS011;64964;48.694;21.206;2023-02-15T00:26:23;14.97;;;6.73;;
76194;SDS011;64964;48.694;21.206;2023-02-15T00:28:48;15.90;;;7.30;;
76194;SDS011;64964;48.694;21.206;2023-02-15T00:31:14;13.50;;;6.43;;
76194;SDS011;64964;48.694;21.206;2023-02-15T00:33:39;13.05;;;7.05;;
76194;SDS011;64964;48.694;21.206;2023-02-15T00:36:06;15.17;;;7.53;;
76194;SDS011;64964;48.694;21.206;2023-02-15T00:38:32;14.45;;;6.68;;
76194;SDS011;64964;48.694;21.206;2023-02-15T00:41:00;13.85;;;6.32;;
76194;SDS011;64964;48.694;21.206;2023-02-15T00:43:28;15.27;;;6.87;;
76194;SDS011;64964;48.694;21.206;2023-02-15T00:45:54;13.05;;;7.00;;
76194;SDS011;64964;48.694;21.206;2023-02-15T00:48:20;12.60;;;6.70;;
76194;SDS011;64964;48.694;21.206;2023-02-15T00:50:48;13.97;;;6.60;;
76194;SDS011;64964;48.694;21.206;2023-02-15T00:53:14;15.98;;;7.15;;
76194;SDS011;64964;48.694;21.206;2023-02-15T00:55:40;15.10;;;6.87;;
76194;SDS011;64964;48.694;21.206;2023-02-15T00:58:06;12.73;;;6.75;;
76194;SDS011;64964;48.694;21.206;2023-02-15T01:00:32;14.05;;;6.90;;
76194;SDS011;64964;48.694;21.206;2023-02-15T01:02:57;14.47;;;6.63;;
76194;SDS011;64964;48.694;21.206;2023-02-15T01:05:23;13.30;;;6.43;;
76194;SDS011;64964;48.694;21.206;2023-02-15T01:07:48;13.73;;;7.03;;
76194;SDS011;64964;48.694;21.206;2023-02-15T01:10:14;16.23;;;7.00;;
76194;SDS011;64964;48.694;21.206;2023-02-15T01:12:40;14.93;;;7.15;;
76194;SDS011;64964;48.694;21.206;2023-02-15T01:15:05;14.00;;;6.73;;
76194;SDS011;64964;48.694;21.206;2023-02-15T01:17:31;15.48;;;6.60;;
76194;SDS011;64964;48.694;21.206;2023-02-15T01:19:57;14.03;;;7.37;;
76194;SDS011;64964;48.694;21.206;2023-02-15T01:22:22;14.60;;;6.33;;
76194;SDS011;64964;48.694;21.206;2023-02-15T01:24:50;16.00;;;7.33;;
76194;SDS011;64964;48.694;21.206;2023-02-15T01:27:16;13.90;;;6.43;;
76194;SDS011;64964;48.694;21.206;2023-02-15T01:29:42;14.55;;;6.82;;
76194;SDS011;64964;48.694;21.206;2023-02-15T01:32:07;13.80;;;6.73;;
76194;SDS011;64964;48.694;21.206;2023-02-15T01:34:32;14.23;;;6.90;;
76194;SDS011;64964;48.694;21.206;2023-02-15T01:36:58;15.43;;;6.83;;
76194;SDS011;64964;48.694;21.206;2023-02-15T01:39:23;13.03;;;6.83;;
76194;SDS011;64964;48.694;21.206;2023-02-15T01:41:48;13.77;;;6.88;;
76194;SDS011;64964;48.694;21.206;2023-02-15T01:47:18;14.23;;;6.50;;
76194;SDS011;64964;48.694;21.206;2023-02-15T01:50:32;13.00;;;7.07;;
76194;SDS011;64964;48.694;21.206;2023-02-15T01:53:03;13.73;;;7.47;;
76194;SDS011;64964;48.694;21.206;2023-02-15T01:55:36;13.82;;;6.97;;
76194;SDS011;64964;48.694;21.206;2023-02-15T01:58:05;12.37;;;6.97;;
76194;SDS011;64964;48.694;21.206;2023-02-15T02:00:31;15.52;;;6.90;;
76194;SDS011;64964;48.694;21.206;2023-02-15T02:02:59;13.55;;;6.50;;
76194;SDS011;64964;48.694;21.206;2023-02-15T02:05:25;13.73;;;6.55;;
76194;SDS011;64964;48.694;21.206;2023-02-15T02:07:51;14.82;;;6.75;;
76194;SDS011;64964;48.694;21.206;2023-02-15T02:10:21;13.07;;;6.50;;
76194;SDS011;64964;48.694;21.206;2023-02-15T02:12:48;12.85;;;6.47;;
76194;SDS011;64964;48.694;21.206;2023-02-15T02:15:15;14.10;;;6.88;;
76194;SDS011;64964;48.694;21.206;2023-02-15T02:23:38;15.67;;;6.97;;
76194;SDS011;64964;48.694;21.206;2023-02-15T02:37:58;14.47;;;6.67;;
76194;SDS011;64964;48.694;21.206;2023-02-15T02:43:30;16.85;;;7.63;;
76194;SDS011;64964;48.694;21.206;2023-02-15T02:46:13;13.30;;;6.70;;
76194;SDS011;64964;48.694;21.206;2023-02-15T02:48:45;13.35;;;6.57;;
76194;SDS011;64964;48.694;21.206;2023-02-15T02:51:13;15.20;;;6.30;;
76194;SDS011;64964;48.694;21.206;2023-02-15T02:53:39;14.57;;;6.60;;
76194;SDS011;64964;48.694;21.206;2023-02-15T02:56:47;11.73;;;6.70;;
76194;SDS011;64964;48.694;21.206;2023-02-15T02:58:59;15.90;;;7.03;;
76194;SDS011;64964;48.694;21.206;2023-02-15T03:04:31;14.50;;;7.00;;
76194;SDS011;64964;48.694;21.206;2023-02-15T03:07:07;13.27;;;6.35;;
76194;SDS011;64964;48.694;21.206;2023-02-15T03:09:41;14.32;;;6.53;;
76194;SDS011;64964;48.694;21.206;2023-02-15T03:12:11;12.95;;;6.32;;
76194;SDS011;64964;48.694;21.206;2023-02-15T03:15:20;12.30;;;6.55;;
76194;SDS011;64964;48.694;21.206;2023-02-15T03:17:47;13.33;;;6.67;;
76194;SDS011;64964;48.694;21.206;2023-02-15T03:25:56;16.90;;;7.13;;
76194;SDS011;64964;48.694;21.206;2023-02-15T03:28:31;15.40;;;6.63;;
76194;SDS011;64964;48.694;21.206;2023-02-15T03:31:02;13.27;;;6.50;;
76194;SDS011;64964;48.694;21.206;2023-02-15T03:33:30;14.75;;;7.40;;
76194;SDS011;64964;48.694;21.206;2023-02-15T03:36:11;14.65;;;7.03;;
76194;SDS011;64964;48.694;21.206;2023-02-15T03:41:40;14.57;;;7.07;;
76194;SDS011;64964;48.694;21.206;2023-02-15T03:44:14;17.03;;;7.27;;
76194;SDS011;64964;48.694;21.206;2023-02-15T03:46:45;14.20;;;7.07;;
76194;SDS011;64964;48.694;21.206;2023-02-15T03:49:24;16.48;;;7.35;;
76194;SDS011;64964;48.694;21.206;2023-02-15T03:51:53;15.48;;;7.22;;
76194;SDS011;64964;48.694;21.206;2023-02-15T03:54:25;17.20;;;7.35;;
76194;SDS011;64964;48.694;21.206;2023-02-15T04:00:19;17.02;;;7.47;;
76194;SDS011;64964;48.694;21.206;2023-02-15T04:05:40;14.40;;;6.90;;
76194;SDS011;64964;48.694;21.206;2023-02-15T04:08:06;15.75;;;7.20;;
76194;SDS011;64964;48.694;21.206;2023-02-15T04:10:32;17.63;;;7.83;;
76194;SDS011;64964;48.694;21.206;2023-02-15T04:13:16;16.63;;;8.07;;
76194;SDS011;64964;48.694;21.206;2023-02-15T04:15:42;14.63;;;7.10;;
76194;SDS011;64964;48.694;21.206;2023-02-15T04:18:26;17.83;;;7.43;;
76194;SDS011;64964;48.694;21.206;2023-02-15T04:21:09;15.40;;;7.00;;
76194;SDS011;64964;48.694;21.206;2023-02-15T04:23:53;18.00;;;7.72;;
76194;SDS011;64964;48.694;21.206;2023-02-15T04:26:37;17.02;;;7.15;;
76194;SDS011;64964;48.694;21.206;2023-02-15T04:29:03;14.00;;;7.00;;
76194;SDS011;64964;48.694;21.206;2023-02-15T04:31:28;17.20;;;7.60;;
76194;SDS011;64964;48.694;21.206;2023-02-15T04:33:53;14.73;;;7.30;;
76194;SDS011;64964;48.694;21.206;2023-02-15T04:36:19;15.30;;;7.20;;
76194;SDS011;64964;48.694;21.206;2023-02-15T04:38:44;16.17;;;7.53;;
76194;SDS011;64964;48.694;21.206;2023-02-15T04:41:09;16.97;;;7.10;;
76194;SDS011;64964;48.694;21.206;2023-02-15T04:43:37;17.80;;;7.53;;
76194;SDS011;64964;48.694;21.206;2023-02-15T04:46:02;16.02;;;7.53;;
76194;SDS011;64964;48.694;21.206;2023-02-15T04:48:27;16.40;;;7.13;;
76194;SDS011;64964;48.694;21.206;2023-02-15T04:50:53;15.87;;;7.33;;
76194;SDS011;64964;48.694;21.206;2023-02-15T04:53:18;15.30;;;6.93;;
76194;SDS011;64964;48.694;21.206;2023-02-15T04:55:43;14.90;;;7.20;;
76194;SDS011;64964;48.694;21.206;2023-02-15T04:58:09;15.43;;;7.60;;
76194;SDS011;64964;48.694;21.206;2023-02-15T05:00:34;15.25;;;7.13;;
76194;SDS011;64964;48.694;21.206;2023-02-15T05:03:00;16.57;;;7.80;;
76194;SDS011;64964;48.694;21.206;2023-02-15T05:05:25;14.30;;;6.90;;
76194;SDS011;64964;48.694;21.206;2023-02-15T05:07:50;17.20;;;8.27;;
76194;SDS011;64964;48.694;21.206;2023-02-15T05:10:16;16.40;;;7.20;;
76194;SDS011;64964;48.694;21.206;2023-02-15T05:12:41;17.43;;;7.47;;
76194;SDS011;64964;48.694;21.206;2023-02-15T05:15:07;16.37;;;7.50;;
76194;SDS011;64964;48.694;21.206;2023-02-15T05:17:32;15.95;;;7.18;;
76194;SDS011;64964;48.694;21.206;2023-02-15T05:19:58;17.03;;;6.80;;
76194;SDS011;64964;48.694;21.206;2023-02-15T05:22:24;17.02;;;7.25;;
76194;SDS011;64964;48.694;21.206;2023-02-15T05:24:49;15.80;;;6.90;;
76194;SDS011;64964;48.694;21.206;2023-02-15T05:27:33;13.35;;;7.32;;
76194;SDS011;64964;48.694;21.206;2023-02-15T05:30:17;15.50;;;7.38;;
76194;SDS011;64964;48.694;21.206;2023-02-15T05:32:42;18.13;;;7.10;;
76194;SDS011;64964;48.694;21.206;2023-02-15T05:35:11;14.37;;;6.83;;
76194;SDS011;64964;48.694;21.206;2023-02-15T05:37:40;17.75;;;7.22;;
76194;SDS011;64964;48.694;21.206;2023-02-15T05:40:06;16.50;;;7.37;;
76194;SDS011;64964;48.694;21.206;2023-02-15T05:42:32;16.52;;;6.93;;
76194;SDS011;64964;48.694;21.206;2023-02-15T05:44:57;13.70;;;7.03;;
76194;SDS011;64964;48.694;21.206;2023-02-15T05:47:22;14.00;;;6.80;;
76194;SDS011;64964;48.694;21.206;2023-02-15T05:49:48;16.83;;;7.37;;
76194;SDS011;64964;48.694;21.206;2023-02-15T05:52:13;15.53;;;7.70;;
76194;SDS011;64964;48.694;21.206;2023-02-15T05:54:39;17.87;;;7.40;;
76194;SDS011;64964;48.694;21.206;2023-02-15T05:57:04;16.77;;;6.72;;
76194;SDS011;64964;48.694;21.206;2023-02-15T05:59:29;17.57;;;7.73;;
76194;SDS011;64964;48.694;21.206;2023-02-15T06:01:55;14.40;;;6.90;;
76194;SDS011;64964;48.694;21.206;2023-02-15T06:04:20;13.37;;;6.43;;
76194;SDS011;64964;48.694;21.206;2023-02-15T06:06:45;14.40;;;6.53;;
76194;SDS011;64964;48.694;21.206;2023-02-15T06:09:11;14.07;;;7.00;;
76194;SDS011;64964;48.694;21.206;2023-02-15T06:11:37;15.90;;;7.50;;
76194;SDS011;64964;48.694;21.206;2023-02-15T06:14:03;14.70;;;7.40;;
76194;SDS011;64964;48.694;21.206;2023-02-15T06:16:28;15.50;;;6.70;;
76194;SDS011;64964;48.694;21.206;2023-02-15T06:18:54;16.53;;;7.53;;
76194;SDS011;64964;48.694;21.206;2023-02-15T06:21:19;15.48;;;6.93;;
76194;SDS011;64964;48.694;21.206;2023-02-15T06:23:44;17.33;;;8.13;;
76194;SDS011;64964;48.694;21.206;2023-02-15T06:26:10;16.20;;;7.73;;
76194;SDS011;64964;48.694;21.206;2023-02-15T06:28:35;15.73;;;7.40;;
76194;SDS011;64964;48.694;21.206;2023-02-15T06:31:02;18.05;;;7.30;;
76194;SDS011;64964;48.694;21.206;2023-02-15T06:33:27;16.03;;;6.90;;
76194;SDS011;64964;48.694;21.206;2023-02-15T06:35:55;16.45;;;7.57;;
76194;SDS011;64964;48.694;21.206;2023-02-15T06:38:21;16.05;;;7.93;;
76194;SDS011;64964;48.694;21.206;2023-02-15T06:40:47;16.08;;;7.32;;
76194;SDS011;64964;48.694;21.206;2023-02-15T06:43:12;20.17;;;7.77;;
76194;SDS011;64964;48.694;21.206;2023-02-15T06:45:37;13.33;;;6.43;;
76194;SDS011;64964;48.694;21.206;2023-02-15T06:48:03;16.33;;;7.07;;
76194;SDS011;64964;48.694;21.206;2023-02-15T06:50:31;17.35;;;7.65;;
76194;SDS011;64964;48.694;21.206;2023-02-15T06:52:57;16.40;;;7.63;;
76194;SDS011;64964;48.694;21.206;2023-02-15T06:55:24;13.25;;;6.70;;
76194;SDS011;64964;48.694;21.206;2023-02-15T06:57:49;15.52;;;6.97;;
76194;SDS011;64964;48.694;21.206;2023-02-15T07:00:15;14.30;;;6.97;;
76194;SDS011;64964;48.694;21.206;2023-02-15T07:02:40;14.98;;;7.10;;
76194;SDS011;64964;48.694;21.206;2023-02-15T07:05:06;13.60;;;6.40;;
76194;SDS011;64964;48.694;21.206;2023-02-15T07:07:31;16.80;;;8.03;;
76194;SDS011;64964;48.694;21.206;2023-02-15T07:09:56;17.10;;;6.83;;
76194;SDS011;64964;48.694;21.206;2023-02-15T07:12:22;14.67;;;6.60;;
76194;SDS011;64964;48.694;21.206;2023-02-15T07:15:06;15.37;;;6.63;;
76194;SDS011;64964;48.694;21.206;2023-02-15T07:17:34;14.32;;;6.85;;
76194;SDS011;64964;48.694;21.206;2023-02-15T07:20:00;14.43;;;7.25;;
76194;SDS011;64964;48.694;21.206;2023-02-15T07:22:25;15.83;;;6.93;;
76194;SDS011;64964;48.694;21.206;2023-02-15T07:24:51;15.38;;;6.90;;
76194;SDS011;64964;48.694;21.206;2023-02-15T07:27:19;13.30;;;6.40;;
76194;SDS011;64964;48.694;21.206;2023-02-15T07:29:44;14.43;;;6.80;;
76194;SDS011;64964;48.694;21.206;2023-02-15T07:32:10;15.83;;;7.43;;
76194;SDS011;64964;48.694;21.206;2023-02-15T07:34:35;15.53;;;7.00;;
76194;SDS011;64964;48.694;21.206;2023-02-15T07:37:00;15.07;;;6.73;;
76194;SDS011;64964;48.694;21.206;2023-02-15T07:39:26;17.67;;;7.07;;
76194;SDS011;64964;48.694;21.206;2023-02-15T07:41:51;14.55;;;7.15;;
76194;SDS011;64964;48.694;21.206;2023-02-15T07:44:16;15.83;;;7.13;;
76194;SDS011;64964;48.694;21.206;2023-02-15T07:46:42;15.17;;;6.97;;
76194;SDS011;64964;48.694;21.206;2023-02-15T07:49:07;13.80;;;6.47;;
76194;SDS011;64964;48.694;21.206;2023-02-15T07:51:33;15.10;;;7.00;;
76194;SDS011;64964;48.694;21.206;2023-02-15T07:53:58;15.40;;;7.17;;
76194;SDS011;64964;48.694;21.206;2023-02-15T07:56:23;13.77;;;7.03;;
76194;SDS011;64964;48.694;21.206;2023-02-15T07:58:49;15.10;;;7.70;;
76194;SDS011;64964;48.694;21.206;2023-02-15T08:01:18;14.07;;;7.40;;
76194;SDS011;64964;48.694;21.206;2023-02-15T08:03:45;15.05;;;7.18;;
76194;SDS011;64964;48.694;21.206;2023-02-15T08:06:10;14.37;;;7.47;;
76194;SDS011;64964;48.694;21.206;2023-02-15T08:08:39;15.60;;;7.00;;
76194;SDS011;64964;48.694;21.206;2023-02-15T08:14:08;14.88;;;8.57;;
76194;SDS011;64964;48.694;21.206;2023-02-15T08:16:38;16.20;;;8.37;;
76194;SDS011;64964;48.694;21.206;2023-02-15T08:19:13;14.30;;;8.43;;
76194;SDS011;64964;48.694;21.206;2023-02-15T08:21:59;14.57;;;8.45;;
76194;SDS011;64964;48.694;21.206;2023-02-15T08:24:27;15.57;;;9.30;;
76194;SDS011;64964;48.694;21.206;2023-02-15T08:26:54;15.98;;;9.10;;
76194;SDS011;64964;48.694;21.206;2023-02-15T08:29:21;15.97;;;9.27;;
76194;SDS011;64964;48.694;21.206;2023-02-15T08:31:49;16.75;;;9.80;;
76194;SDS011;64964;48.694;21.206;2023-02-15T08:34:18;17.50;;;10.50;;
76194;SDS011;64964;48.694;21.206;2023-02-15T08:36:44;26.13;;;12.55;;
76194;SDS011;64964;48.694;21.206;2023-02-15T08:39:10;17.33;;;10.70;;
76194;SDS011;64964;48.694;21.206;2023-02-15T08:41:36;17.98;;;10.82;;
76194;SDS011;64964;48.694;21.206;2023-02-15T08:44:04;18.53;;;11.27;;
76194;SDS011;64964;48.694;21.206;2023-02-15T08:46:32;17.17;;;10.73;;
76194;SDS011;64964;48.694;21.206;2023-02-15T08:48:59;19.67;;;11.68;;
76194;SDS011;64964;48.694;21.206;2023-02-15T08:51:26;16.55;;;11.02;;
76194;SDS011;64964;48.694;21.206;2023-02-15T08:53:54;18.35;;;11.90;;
76194;SDS011;64964;48.694;21.206;2023-02-15T08:56:23;23.10;;;13.27;;
76194;SDS011;64964;48.694;21.206;2023-02-15T08:58:50;19.35;;;11.55;;
76194;SDS011;64964;48.694;21.206;2023-02-15T09:01:18;18.60;;;10.98;;
76194;SDS011;64964;48.694;21.206;2023-02-15T09:03:46;15.10;;;10.07;;
76194;SDS011;64964;48.694;21.206;2023-02-15T09:06:12;16.40;;;10.23;;
76194;SDS011;64964;48.694;21.206;2023-02-15T09:08:38;20.63;;;11.10;;
76194;SDS011;64964;48.694;21.206;2023-02-15T09:11:08;17.77;;;10.63;;
76194;SDS011;64964;48.694;21.206;2023-02-15T09:13:50;16.73;;;10.32;;
76194;SDS011;64964;48.694;21.206;2023-02-15T09:16:18;18.30;;;11.00;;
76194;SDS011;64964;48.694;21.206;2023-02-15T09:18:44;16.30;;;10.05;;
76194;SDS011;64964;48.694;21.206;2023-02-15T09:21:11;18.13;;;11.00;;
76194;SDS011;64964;48.694;21.206;2023-02-15T09:23:39;18.30;;;11.00;;
76194;SDS011;64964;48.694;21.206;2023-02-15T09:26:06;15.23;;;10.10;;
76194;SDS011;64964;48.694;21.206;2023-02-15T09:28:33;19.00;;;11.00;;
76194;SDS011;64964;48.694;21.206;2023-02-15T09:31:06;18.52;;;10.38;;
76194;SDS011;64964;48.694;21.206;2023-02-15T09:33:33;14.80;;;9.77;;
76194;SDS011;64964;48.694;21.206;2023-02-15T09:35:59;19.17;;;11.77;;
76194;SDS011;64964;48.694;21.206;2023-02-15T09:38:25;17.90;;;11.40;;
76194;SDS011;64964;48.694;21.206;2023-02-15T09:40:54;17.27;;;10.87;;
76194;SDS011;64964;48.694;21.206;2023-02-15T09:43:31;15.35;;;10.25;;
76194;SDS011;64964;48.694;21.206;2023-02-15T09:49:08;19.27;;;10.83;;
76194;SDS011;64964;48.694;21.206;2023-02-15T09:52:17;16.50;;;9.43;;
76194;SDS011;64964;48.694;21.206;2023-02-15T09:57:53;17.08;;;9.55;;
76194;SDS011;64964;48.694;21.206;2023-02-15T10:00:50;20.65;;;10.30;;
76194;SDS011;64964;48.694;21.206;2023-02-15T10:06:23;18.75;;;10.18;;
76194;SDS011;64964;48.694;21.206;2023-02-15T10:23:17;20.75;;;11.13;;
76194;SDS011;64964;48.694;21.206;2023-02-15T10:26:07;22.58;;;11.10;;
76194;SDS011;64964;48.694;21.206;2023-02-15T10:31:23;17.50;;;10.40;;
76194;SDS011;64964;48.694;21.206;2023-02-15T10:34:17;18.77;;;11.20;;
76194;SDS011;64964;48.694;21.206;2023-02-15T10:36:58;23.45;;;13.23;;
76194;SDS011;64964;48.694;21.206;2023-02-15T10:50:39;20.08;;;10.77;;
76194;SDS011;64964;48.694;21.206;2023-02-15T10:56:12;17.95;;;11.10;;
76194;SDS011;64964;48.694;21.206;2023-02-15T11:01:40;17.00;;;10.65;;
76194;SDS011;64964;48.694;21.206;2023-02-15T11:07:16;19.98;;;10.95;;
76194;SDS011;64964;48.694;21.206;2023-02-15T11:09:50;26.75;;;11.95;;
76194;SDS011;64964;48.694;21.206;2023-02-15T11:12:22;16.87;;;10.00;;
76194;SDS011;64964;48.694;21.206;2023-02-15T11:14:55;19.33;;;10.85;;
76194;SDS011;64964;48.694;21.206;2023-02-15T11:17:42;22.08;;;11.43;;
76194;SDS011;64964;48.694;21.206;2023-02-15T11:22:50;18.42;;;11.73;;
76194;SDS011;64964;48.694;21.206;2023-02-15T11:25:19;24.77;;;12.33;;
76194;SDS011;64964;48.694;21.206;2023-02-15T11:27:49;17.85;;;10.55;;
76194;SDS011;64964;48.694;21.206;2023-02-15T11:30:23;20.20;;;10.05;;
76194;SDS011;64964;48.694;21.206;2023-02-15T11:32:56;22.30;;;10.30;;
76194;SDS011;64964;48.694;21.206;2023-02-15T11:35:36;19.98;;;9.13;;
76194;SDS011;64964;48.694;21.206;2023-02-15T11:38:12;17.03;;;9.07;;
76194;SDS011;64964;48.694;21.206;2023-02-15T11:46:13;17.95;;;9.73;;
76194;SDS011;64964;48.694;21.206;2023-02-15T11:48:39;16.80;;;9.45;;
76194;SDS011;64964;48.694;21.206;2023-02-15T11:51:25;15.40;;;8.40;;
76194;SDS011;64964;48.694;21.206;2023-02-15T11:53:53;12.48;;;7.60;;
76194;SDS011;64964;48.694;21.206;2023-02-15T11:56:23;15.02;;;8.18;;
76194;SDS011;64964;48.694;21.206;2023-02-15T11:59:04;14.55;;;8.30;;
76194;SDS011;64964;48.694;21.206;2023-02-15T12:01:45;13.82;;;8.32;;
76194;SDS011;64964;48.694;21.206;2023-02-15T12:06:59;15.95;;;9.70;;
76194;SDS011;64964;48.694;21.206;2023-02-15T12:09:40;16.33;;;8.55;;
76194;SDS011;64964;48.694;21.206;2023-02-15T12:12:19;15.75;;;9.15;;
76194;SDS011;64964;48.694;21.206;2023-02-15T12:15:09;18.88;;;9.70;;
76194;SDS011;64964;48.694;21.206;2023-02-15T12:22:39;18.02;;;10.10;;
76194;SDS011;64964;48.694;21.206;2023-02-15T12:25:21;15.43;;;9.00;;
76194;SDS011;64964;48.694;21.206;2023-02-15T12:27:50;17.27;;;9.10;;
76194;SDS011;64964;48.694;21.206;2023-02-15T12:30:18;17.00;;;9.03;;
76194;SDS011;64964;48.694;21.206;2023-02-15T12:32:51;16.67;;;8.85;;
76194;SDS011;64964;48.694;21.206;2023-02-15T12:35:26;16.92;;;8.82;;
76194;SDS011;64964;48.694;21.206;2023-02-15T12:37:56;17.83;;;9.77;;
76194;SDS011;64964;48.694;21.206;2023-02-15T12:40:26;17.02;;;7.88;;
76194;SDS011;64964;48.694;21.206;2023-02-15T12:42:55;15.70;;;8.60;;
76194;SDS011;64964;48.694;21.206;2023-02-15T12:45:31;16.23;;;8.55;;
76194;SDS011;64964;48.694;21.206;2023-02-15T12:48:08;16.07;;;8.10;;
76194;SDS011;64964;48.694;21.206;2023-02-15T12:50:37;16.27;;;8.52;;
76194;SDS011;64964;48.694;21.206;2023-02-15T12:53:07;17.10;;;8.27;;
76194;SDS011;64964;48.694;21.206;2023-02-15T12:55:37;15.93;;;9.55;;
76194;SDS011;64964;48.694;21.206;2023-02-15T12:58:16;15.60;;;8.90;;
76194;SDS011;64964;48.694;21.206;2023-02-15T13:00:48;18.05;;;8.90;;
76194;SDS011;64964;48.694;21.206;2023-02-15T13:03:38;14.82;;;8.20;;
76194;SDS011;64964;48.694;21.206;2023-02-15T13:06:19;14.63;;;8.00;;
76194;SDS011;64964;48.694;21.206;2023-02-15T13:08:46;15.27;;;8.32;;
76194;SDS011;64964;48.694;21.206;2023-02-15T13:11:15;14.93;;;8.25;;
76194;SDS011;64964;48.694;21.206;2023-02-15T13:13:53;13.43;;;7.32;;
76194;SDS011;64964;48.694;21.206;2023-02-15T13:16:39;16.20;;;8.60;;
76194;SDS011;64964;48.694;21.206;2023-02-15T13:19:23;15.47;;;8.30;;
76194;SDS011;64964;48.694;21.206;2023-02-15T13:21:56;15.93;;;8.27;;
76194;SDS011;64964;48.694;21.206;2023-02-15T13:26:54;15.98;;;8.38;;
76194;SDS011;64964;48.694;21.206;2023-02-15T13:29:28;15.43;;;8.75;;
76194;SDS011;64964;48.694;21.206;2023-02-15T13:32:00;16.20;;;8.77;;
76194;SDS011;64964;48.694;21.206;2023-02-15T13:34:33;14.80;;;8.02;;
76194;SDS011;64964;48.694;21.206;2023-02-15T13:37:45;18.48;;;8.40;;
76194;SDS011;64964;48.694;21.206;2023-02-15T13:45:13;16.07;;;8.53;;
76194;SDS011;64964;48.694;21.206;2023-02-15T13:59:12;17.00;;;9.20;;
76194;SDS011;64964;48.694;21.206;2023-02-15T14:07:01;17.35;;;8.68;;
76194;SDS011;64964;48.694;21.206;2023-02-15T14:20:02;21.88;;;9.55;;
76194;SDS011;64964;48.694;21.206;2023-02-15T14:30:30;16.75;;;8.15;;
76194;SDS011;64964;48.694;21.206;2023-02-15T14:33:10;19.45;;;8.88;;
76194;SDS011;64964;48.694;21.206;2023-02-15T14:35:40;15.88;;;8.07;;
76194;SDS011;64964;48.694;21.206;2023-02-15T14:46:12;19.08;;;9.57;;
76194;SDS011;64964;48.694;21.206;2023-02-15T14:49:08;15.30;;;7.82;;
76194;SDS011;64964;48.694;21.206;2023-02-15T14:54:08;18.73;;;8.93;;
76194;SDS011;64964;48.694;21.206;2023-02-15T14:56:43;16.85;;;8.93;;
76194;SDS011;64964;48.694;21.206;2023-02-15T15:01:37;16.93;;;8.57;;
76194;SDS011;64964;48.694;21.206;2023-02-15T15:04:14;20.63;;;10.95;;
76194;SDS011;64964;48.694;21.206;2023-02-15T15:07:24;23.55;;;11.45;;
76194;SDS011;64964;48.694;21.206;2023-02-15T15:09:46;24.80;;;12.48;;
76194;SDS011;64964;48.694;21.206;2023-02-15T15:14:54;23.92;;;11.65;;
76194;SDS011;64964;48.694;21.206;2023-02-15T15:20:13;24.60;;;11.70;;
76194;SDS011;64964;48.694;21.206;2023-02-15T15:25:41;26.50;;;10.77;;
76194;SDS011;64964;48.694;21.206;2023-02-15T15:43:46;30.73;;;12.35;;
76194;SDS011;64964;48.694;21.206;2023-02-15T15:50:40;25.25;;;11.10;;
76194;SDS011;64964;48.694;21.206;2023-02-15T15:53:10;26.03;;;12.07;;
76194;SDS011;64964;48.694;21.206;2023-02-15T15:55:45;28.17;;;12.10;;
76194;SDS011;64964;48.694;21.206;2023-02-15T15:58:14;28.23;;;12.07;;
76194;SDS011;64964;48.694;21.206;2023-02-15T16:00:43;25.27;;;12.30;;
76194;SDS011;64964;48.694;21.206;2023-02-15T16:03:29;24.42;;;12.25;;
76194;SDS011;64964;48.694;21.206;2023-02-15T16:05:55;34.27;;;14.47;;
76194;SDS011;64964;48.694;21.206;2023-02-15T16:08:31;30.23;;;13.75;;
76194;SDS011;64964;48.694;21.206;2023-02-15T16:10:59;26.40;;;12.50;;
76194;SDS011;64964;48.694;21.206;2023-02-15T16:13:32;24.85;;;11.88;;
76194;SDS011;64964;48.694;21.206;2023-02-15T16:15:58;24.05;;;11.90;;
76194;SDS011;64964;48.694;21.206;2023-02-15T16:18:24;29.10;;;11.77;;
76194;SDS011;64964;48.694;21.206;2023-02-15T16:20:55;24.55;;;11.63;;
76194;SDS011;64964;48.694;21.206;2023-02-15T16:28:52;30.08;;;14.10;;
76194;SDS011;64964;48.694;21.206;2023-02-15T16:31:19;37.10;;;13.60;;
76194;SDS011;64964;48.694;21.206;2023-02-15T16:33:47;32.90;;;13.48;;
76194;SDS011;64964;48.694;21.206;2023-02-15T16:36:20;28.65;;;13.27;;
76194;SDS011;64964;48.694;21.206;2023-02-15T16:41:13;34.50;;;14.13;;
76194;SDS011;64964;48.694;21.206;2023-02-15T16:43:54;29.70;;;14.23;;
76194;SDS011;64964;48.694;21.206;2023-02-15T16:46:36;39.67;;;16.85;;
76194;SDS011;64964;48.694;21.206;2023-02-15T16:49:07;40.97;;;18.35;;
76194;SDS011;64964;48.694;21.206;2023-02-15T16:51:41;38.70;;;17.63;;
76194;SDS011;64964;48.694;21.206;2023-02-15T16:54:14;36.35;;;16.50;;
76194;SDS011;64964;48.694;21.206;2023-02-15T16:56:44;32.17;;;15.00;;
76194;SDS011;64964;48.694;21.206;2023-02-15T16:59:19;31.75;;;14.63;;
76194;SDS011;64964;48.694;21.206;2023-02-15T17:01:56;30.27;;;13.15;;
76194;SDS011;64964;48.694;21.206;2023-02-15T17:09:37;31.03;;;13.47;;
76194;SDS011;64964;48.694;21.206;2023-02-15T17:12:35;29.63;;;13.73;;
76194;SDS011;64964;48.694;21.206;2023-02-15T17:15:20;29.55;;;13.65;;
76194;SDS011;64964;48.694;21.206;2023-02-15T17:18:10;34.35;;;15.38;;
76194;SDS011;64964;48.694;21.206;2023-02-15T17:20:40;36.42;;;15.75;;
76194;SDS011;64964;48.694;21.206;2023-02-15T17:25:58;39.10;;;16.05;;
76194;SDS011;64964;48.694;21.206;2023-02-15T17:28:27;36.83;;;16.10;;
76194;SDS011;64964;48.694;21.206;2023-02-15T17:30:55;38.22;;;16.67;;
76194;SDS011;64964;48.694;21.206;2023-02-15T17:33:26;32.88;;;14.95;;
76194;SDS011;64964;48.694;21.206;2023-02-15T17:38:37;36.58;;;16.25;;
76194;SDS011;64964;48.694;21.206;2023-02-15T17:41:04;34.40;;;17.40;;
76194;SDS011;64964;48.694;21.206;2023-02-15T17:43:30;38.07;;;17.07;;
76194;SDS011;64964;48.694;21.206;2023-02-15T17:45:56;33.80;;;15.57;;
76194;SDS011;64964;48.694;21.206;2023-02-15T17:48:32;35.42;;;16.20;;
76194;SDS011;64964;48.694;21.206;2023-02-15T17:51:00;31.90;;;14.87;;
76194;SDS011;64964;48.694;21.206;2023-02-15T17:53:27;31.13;;;13.93;;
76194;SDS011;64964;48.694;21.206;2023-02-15T17:55:53;31.92;;;14.60;;
76194;SDS011;64964;48.694;21.206;2023-02-15T17:58:19;29.60;;;13.07;;
76194;SDS011;64964;48.694;21.206;2023-02-15T18:00:46;30.45;;;12.95;;
76194;SDS011;64964;48.694;21.206;2023-02-15T18:03:43;27.43;;;13.53;;
76194;SDS011;64964;48.694;21.206;2023-02-15T18:06:29;31.83;;;13.55;;
76194;SDS011;64964;48.694;21.206;2023-02-15T18:09:14;28.00;;;12.43;;
76194;SDS011;64964;48.694;21.206;2023-02-15T18:11:59;31.55;;;13.98;;